createdAt,value
2022-08-22T00:06:26.047Z,1017.09
2022-08-22T00:16:32.953Z,1017.10
2022-08-22T00:26:43.393Z,1017.03
2022-08-22T00:36:51.402Z,1017.03
2022-08-22T00:46:57.978Z,1017.04
2022-08-22T00:57:06.776Z,1017.04
2022-08-22T01:07:13.177Z,1017.12
2022-08-22T01:17:19.804Z,1017.18
2022-08-22T01:27:26.053Z,1017.31
2022-08-22T01:37:32.691Z,1017.42
2022-08-22T01:47:38.683Z,1017.33
2022-08-22T01:57:44.769Z,1017.30
2022-08-22T02:07:50.903Z,1017.30
2022-08-22T02:17:56.919Z,1017.26
2022-08-22T02:28:07.704Z,1017.32
2022-08-22T02:38:14.215Z,1017.30
2022-08-22T02:48:21.079Z,1017.28
2022-08-22T02:58:32.691Z,1017.27
2022-08-22T03:08:47.352Z,1017.27
2022-08-22T03:18:50.893Z,1017.25
2022-08-22T03:28:59.877Z,1017.14
2022-08-22T03:39:08.198Z,1017.14
2022-08-22T03:49:18.079Z,1017.21
2022-08-22T03:59:24.519Z,1017.20
2022-08-22T04:09:30.281Z,1017.33
2022-08-22T04:19:37.479Z,1017.36
2022-08-22T04:29:43.650Z,1017.52
2022-08-22T04:39:49.668Z,1017.63
2022-08-22T04:49:56.660Z,1017.65
2022-08-22T05:00:03.515Z,1017.70
2022-08-22T05:10:12.310Z,1017.76
2022-08-22T05:20:18.973Z,1017.82
2022-08-22T05:30:25.784Z,1017.84
2022-08-22T05:40:31.995Z,1017.95
2022-08-22T05:50:38.119Z,1017.98
2022-08-22T06:00:44.879Z,1018.00
2022-08-22T06:10:51.595Z,1018.08
2022-08-22T06:20:57.970Z,1018.17
2022-08-22T06:31:04.130Z,1018.17
2022-08-22T06:41:11.047Z,1018.23
2022-08-22T06:51:17.335Z,1018.30
2022-08-22T07:01:24.291Z,1018.34
2022-08-22T07:11:31.065Z,1018.40
2022-08-22T07:21:37.981Z,1018.42
2022-08-22T07:31:45.825Z,1018.46
2022-08-22T07:41:52.772Z,1018.49
2022-08-22T07:51:59.750Z,1018.52
2022-08-22T08:02:07.001Z,1018.57
2022-08-22T08:12:14.791Z,1018.49
2022-08-22T08:22:21.245Z,1018.53
2022-08-22T08:32:28.086Z,1018.50
2022-08-22T08:42:34.354Z,1018.48
2022-08-22T08:52:40.643Z,1018.42
2022-08-22T09:02:47.050Z,1018.46
2022-08-22T09:13:11.451Z,1018.46
2022-08-22T09:23:10.831Z,1018.46
2022-08-22T09:33:17.765Z,1018.53
2022-08-22T09:43:24.396Z,1018.56
2022-08-22T09:54:50.088Z,1018.54
2022-08-22T10:04:56.382Z,1018.48
2022-08-22T10:15:04.390Z,1018.54
2022-08-22T10:25:13.327Z,1018.56
2022-08-22T10:35:19.689Z,1018.57
2022-08-22T10:45:35.627Z,1018.49
2022-08-22T10:55:37.399Z,1018.48
2022-08-22T11:05:44.748Z,1018.45
2022-08-22T11:15:56.083Z,1018.46
2022-08-22T11:26:05.158Z,1018.45
2022-08-22T11:36:11.764Z,1018.49
2022-08-22T11:46:19.929Z,1018.47
2022-08-22T11:56:26.662Z,1018.42
2022-08-22T12:06:34.766Z,1018.38
2022-08-22T12:16:41.140Z,1018.30
2022-08-22T12:26:51.741Z,1018.27
2022-08-22T12:36:58.227Z,1018.21
2022-08-22T12:48:24.016Z,1018.16
2022-08-22T12:58:33.539Z,1018.02
2022-08-22T13:08:41.514Z,1017.98
2022-08-22T13:18:48.123Z,1017.92
2022-08-22T13:29:22.064Z,1017.94
2022-08-22T13:39:10.971Z,1017.92
2022-08-22T13:49:18.760Z,1017.91
2022-08-22T13:59:49.479Z,1017.94
2022-08-22T14:09:40.830Z,1017.97
2022-08-22T14:19:53.030Z,1017.96
2022-08-22T14:29:59.222Z,1017.77
2022-08-22T14:40:06.274Z,1017.78
2022-08-22T14:50:13.210Z,1017.75
2022-08-22T15:00:23.771Z,1017.77
2022-08-22T15:10:37.352Z,1017.75
2022-08-22T15:20:49.339Z,1017.72
2022-08-22T15:30:57.908Z,1017.71
2022-08-22T15:41:04.435Z,1017.81
2022-08-22T15:51:12.469Z,1017.79
2022-08-22T16:01:20.405Z,1017.77
2022-08-22T16:11:32.760Z,1017.87
2022-08-22T16:21:40.307Z,1017.84
2022-08-22T16:31:47.083Z,1017.87
2022-08-22T16:41:53.968Z,1017.90
2022-08-22T16:52:00.763Z,1017.86
2022-08-22T17:02:08.011Z,1017.98
2022-08-22T17:12:14.405Z,1018.02
2022-08-22T17:22:21.248Z,1018.09
2022-08-22T17:32:30.947Z,1018.03
2022-08-22T17:42:37.665Z,1018.10
2022-08-22T17:52:44.579Z,1018.19
2022-08-22T18:02:57.061Z,1018.30
2022-08-22T18:13:07.082Z,1018.51
2022-08-22T18:23:21.711Z,1018.65
2022-08-22T18:33:25.541Z,1018.65
2022-08-22T18:43:33.070Z,1018.68
2022-08-22T18:53:39.970Z,1018.56
2022-08-22T19:03:46.489Z,1018.58
2022-08-22T19:13:52.766Z,1018.61
2022-08-22T19:23:59.610Z,1018.68
2022-08-22T19:34:06.475Z,1018.73
2022-08-22T19:44:13.428Z,1018.83
2022-08-22T19:54:20.358Z,1018.84
2022-08-22T20:04:27.383Z,1018.85
2022-08-22T20:14:34.218Z,1018.83
2022-08-22T20:24:41.075Z,1018.90
2022-08-22T20:34:47.279Z,1018.85
2022-08-22T20:44:53.790Z,1018.90
2022-08-22T20:55:00.221Z,1018.80
2022-08-22T21:05:06.280Z,1018.87
2022-08-22T21:15:12.960Z,1018.82
2022-08-22T21:25:19.227Z,1018.92
2022-08-22T21:35:25.196Z,1018.87
2022-08-22T21:45:31.374Z,1018.88
2022-08-22T21:55:37.624Z,1018.98
2022-08-22T22:05:43.556Z,1018.84
2022-08-22T22:15:49.843Z,1018.79
2022-08-22T22:25:56.077Z,1018.89
2022-08-22T22:36:02.726Z,1018.86
2022-08-22T22:46:09.187Z,1018.81
2022-08-22T22:56:16.081Z,1018.84
2022-08-22T23:06:22.934Z,1018.77
2022-08-22T23:16:32.030Z,1018.73
2022-08-22T23:26:41.341Z,1018.64
2022-08-22T23:36:47.507Z,1018.58
2022-08-22T23:46:54.337Z,1018.58
2022-08-22T23:57:00.855Z,1018.53
